Time;durP1;ratioP1;P1;durP2;ratioP2;P2;SDS_P1;SDS_P2;PMS_P1;PMS_P2;Temp;Humidity;BMP_temperature;BMP_pressure;BME280_temperature;BME280_humidity;BME280_pressure;Samples;Min_cycle;Max_cycle;Signal;HPM_P1;HPM_P2
2021/11/22 00:02:25;;;;;;;35.22;17.50;;;;;;;7.89;58.19;94971.69;4993492;28;20045;-76
2021/11/22 00:04:50;;;;;;;37.35;18.77;;;;;;;7.85;58.89;94970.69;4993083;28;20037;-75
2021/11/22 00:07:17;;;;;;;36.70;18.17;;;;;;;8.30;58.29;94969.13;4992776;28;20037;-75
2021/11/22 00:09:43;;;;;;;30.98;17.20;;;;;;;8.73;56.76;94959.03;4997198;28;20023;-76
2021/11/22 00:12:09;;;;;;;30.50;17.23;;;;;;;9.18;55.85;94953.06;4993018;28;20026;-76
2021/11/22 00:14:35;;;;;;;34.10;16.95;;;;;;;8.30;56.87;94940.75;4993363;28;20037;-72
2021/11/22 00:17:01;;;;;;;31.42;16.67;;;;;;;8.53;56.70;94957.56;4993302;28;20499;-73
2021/11/22 00:19:27;;;;;;;30.67;17.10;;;;;;;8.56;56.74;94964.16;4992654;28;20031;-73
2021/11/22 00:21:53;;;;;;;32.08;15.45;;;;;;;8.64;56.12;94939.56;4992797;28;20132;-75
2021/11/22 00:24:18;;;;;;;29.55;15.07;;;;;;;8.77;55.74;94948.63;4990770;28;20022;-74
2021/11/22 00:26:43;;;;;;;24.55;14.35;;;;;;;8.54;56.71;94974.25;4991881;28;20048;-76
2021/11/22 00:29:09;;;;;;;25.50;13.48;;;;;;;8.97;56.01;94969.41;4992457;28;20030;-76
2021/11/22 00:31:34;;;;;;;23.00;13.88;;;;;;;9.44;55.09;94971.84;4992898;28;20088;-75
2021/11/22 00:34:00;;;;;;;28.27;15.50;;;;;;;9.42;54.44;94976.66;4992625;28;20391;-76
2021/11/22 00:36:25;;;;;;;21.65;13.95;;;;;;;8.66;55.55;94981.72;4992622;28;20022;-75
2021/11/22 00:38:51;;;;;;;23.00;14.02;;;;;;;8.36;56.42;94980.41;4994949;28;20091;-75
2021/11/22 00:41:17;;;;;;;21.92;13.73;;;;;;;7.85;58.56;94960.88;4993583;28;20539;-75
2021/11/22 00:43:42;;;;;;;24.75;13.95;;;;;;;7.26;59.79;94970.25;4992301;28;20033;-76
2021/11/22 00:46:07;;;;;;;23.70;15.13;;;;;;;8.37;57.34;94955.50;4991184;28;20030;-76
2021/11/22 00:48:35;;;;;;;25.13;15.50;;;;;;;8.83;55.86;94964.13;4992232;28;20077;-77
2021/11/22 00:51:00;;;;;;;21.92;14.13;;;;;;;9.50;55.31;94986.59;4990741;28;20033;-75
2021/11/22 00:53:27;;;;;;;26.50;16.58;;;;;;;8.63;55.99;94984.94;4990147;28;20038;-75
2021/11/22 00:55:52;;;;;;;22.65;14.65;;;;;;;7.39;59.45;94984.63;4990918;28;20030;-76
2021/11/22 00:58:18;;;;;;;27.80;15.50;;;;;;;7.74;58.99;94984.09;4992032;28;20034;-74
2021/11/22 01:00:43;;;;;;;27.25;16.17;;;;;;;7.69;59.15;94984.19;4991788;28;20038;-75
2021/11/22 01:03:08;;;;;;;24.77;15.77;;;;;;;8.08;58.36;94989.06;4990346;28;20026;-76
2021/11/22 01:05:34;;;;;;;25.95;15.65;;;;;;;7.88;58.18;94978.03;4992144;28;20030;-76
2021/11/22 01:08:01;;;;;;;24.98;14.68;;;;;;;8.20;57.96;94974.59;4991414;28;20088;-76
2021/11/22 01:10:26;;;;;;;25.52;15.45;;;;;;;8.80;57.28;94995.75;4991412;28;20039;-76
2021/11/22 01:12:52;;;;;;;26.75;15.77;;;;;;;8.33;57.29;94992.34;4991608;28;20387;-76
2021/11/22 01:15:21;;;;;;;24.20;16.40;;;;;;;8.30;57.92;94996.41;4990594;28;20050;-75
2021/11/22 01:17:48;;;;;;;31.23;15.25;;;;;;;7.11;60.79;94992.41;4991636;28;20031;-74
2021/11/22 01:20:16;;;;;;;29.23;16.70;;;;;;;7.91;59.55;94996.78;4991465;28;20073;-75
2021/11/22 01:22:42;;;;;;;31.30;16.70;;;;;;;8.55;56.87;94999.69;4991432;28;20034;-76
2021/11/22 01:25:10;;;;;;;29.05;16.85;;;;;;;8.14;57.54;95007.53;4994840;28;20120;-75
2021/11/22 01:27:36;;;;;;;21.95;15.52;;;;;;;8.44;58.00;95003.59;4991442;28;20169;-75
2021/11/22 01:30:10;;;;;;;27.83;15.63;;;;;;;8.44;56.91;95011.53;4990931;28;20090;-75
2021/11/22 01:32:35;;;;;;;23.95;14.75;;;;;;;8.14;57.46;95000.41;4990309;28;20129;-71
2021/11/22 01:35:01;;;;;;;23.13;15.45;;;;;;;8.91;56.86;95005.09;4991196;28;20113;-72
2021/11/22 01:37:26;;;;;;;27.65;16.38;;;;;;;8.79;56.17;95013.53;4991013;28;20046;-72
2021/11/22 01:39:51;;;;;;;23.38;14.15;;;;;;;8.49;56.68;94995.53;5001121;28;20117;-71
2021/11/22 01:42:17;;;;;;;23.02;14.05;;;;;;;8.21;57.26;94995.50;4992592;28;20023;-71
2021/11/22 01:44:42;;;;;;;24.38;14.45;;;;;;;7.65;59.57;95017.59;4990714;28;20027;-71
2021/11/22 01:47:08;;;;;;;26.88;15.02;;;;;;;7.93;58.88;95001.78;4990730;28;20037;-71
2021/11/22 01:49:33;;;;;;;25.80;15.48;;;;;;;8.12;58.56;95007.84;4988859;28;20524;-72
2021/11/22 01:51:58;;;;;;;23.05;14.40;;;;;;;8.53;57.34;94996.53;4990531;28;20037;-71
2021/11/22 01:54:24;;;;;;;21.17;14.05;;;;;;;8.07;58.31;95000.75;4989947;28;20488;-71
2021/11/22 01:56:50;;;;;;;23.75;15.07;;;;;;;7.66;59.42;94995.31;4995372;28;20034;-70
2021/11/22 01:59:16;;;;;;;18.40;12.15;;;;;;;7.12;60.39;94996.66;4990217;28;20034;-71
2021/11/22 02:01:43;;;;;;;21.38;14.13;;;;;;;7.58;60.11;95019.81;4989342;28;20480;-71
2021/11/22 02:04:09;;;;;;;21.40;14.50;;;;;;;8.04;59.30;95016.47;4990010;28;20411;-71
2021/11/22 02:06:35;;;;;;;23.92;15.73;;;;;;;8.78;57.97;95006.66;4990672;28;20033;-70
2021/11/22 02:09:00;;;;;;;24.50;14.23;;;;;;;7.99;58.05;95017.31;4993790;28;20030;-71
2021/11/22 02:11:26;;;;;;;21.80;14.73;;;;;;;8.23;58.55;95025.13;4995277;28;20522;-71
2021/11/22 02:13:51;;;;;;;22.20;14.77;;;;;;;8.24;58.03;95015.31;4989081;28;20723;-71
2021/11/22 02:16:16;;;;;;;24.63;14.13;;;;;;;8.07;58.55;95018.50;4990645;28;20038;-70
2021/11/22 02:18:43;;;;;;;23.23;13.88;;;;;;;8.66;57.23;95027.59;4990837;28;20026;-71
2021/11/22 02:21:08;;;;;;;22.55;15.18;;;;;;;8.83;57.49;95027.00;4989966;28;20068;-71
2021/11/22 02:23:35;;;;;;;24.77;16.30;;;;;;;9.20;56.57;95036.59;4988845;28;20032;-71
2021/11/22 02:26:00;;;;;;;26.63;16.30;;;;;;;9.52;55.97;95032.19;4992836;28;20392;-70
2021/11/22 02:28:26;;;;;;;29.55;16.63;;;;;;;9.44;54.91;95024.94;4990165;28;20027;-71
2021/11/22 02:30:53;;;;;;;27.35;16.48;;;;;;;9.55;55.83;95044.88;4990052;28;20026;-70
2021/11/22 02:33:23;;;;;;;21.85;14.75;;;;;;;9.53;55.11;95044.41;4988891;28;20491;-71
2021/11/22 02:35:53;;;;;;;22.77;14.73;;;;;;;9.71;54.70;95029.38;4990313;28;20026;-71
2021/11/22 02:38:20;;;;;;;22.17;14.98;;;;;;;9.38;54.77;95025.06;4989822;28;20026;-71
2021/11/22 02:40:46;;;;;;;25.38;16.17;;;;;;;9.77;54.83;95028.97;4996569;28;20038;-71
2021/11/22 02:43:11;;;;;;;21.30;15.05;;;;;;;9.95;54.16;95034.44;5008986;28;20029;-71
2021/11/22 02:45:37;;;;;;;22.45;14.90;;;;;;;9.28;54.80;95037.78;4990552;28;20384;-70
2021/11/22 02:48:03;;;;;;;26.45;16.50;;;;;;;9.41;54.53;95036.94;4990464;28;20033;-71
2021/11/22 02:50:28;;;;;;;30.83;18.27;;;;;;;9.28;55.14;95040.41;4988608;28;20121;-71
2021/11/22 02:52:53;;;;;;;26.52;17.88;;;;;;;9.43;55.24;95050.72;4988105;28;20027;-70
2021/11/22 02:55:20;;;;;;;28.30;19.02;;;;;;;9.63;55.24;95044.19;4994642;28;20503;-71
2021/11/22 02:57:46;;;;;;;28.33;18.75;;;;;;;9.61;54.46;95041.81;4989657;28;20072;-71
2021/11/22 03:00:19;;;;;;;23.00;16.40;;;;;;;9.30;54.88;95039.03;4989568;28;20049;-71
2021/11/22 03:02:45;;;;;;;29.70;19.33;;;;;;;9.71;54.29;95032.84;4989857;28;20026;-71
2021/11/22 03:05:11;;;;;;;26.95;17.80;;;;;;;9.07;55.68;95045.38;4989782;28;20027;-71
2021/11/22 03:07:37;;;;;;;27.13;17.85;;;;;;;9.14;55.11;95044.97;4989880;28;20058;-71
2021/11/22 03:10:05;;;;;;;29.48;18.65;;;;;;;9.07;55.37;95048.81;4993525;28;20607;-71
2021/11/22 03:12:30;;;;;;;31.75;19.08;;;;;;;8.36;57.83;95038.72;4990087;28;20379;-72
2021/11/22 03:14:56;;;;;;;34.33;20.40;;;;;;;7.61;60.06;95040.41;4988531;28;20026;-71
2021/11/22 03:17:21;;;;;;;37.63;21.77;;;;;;;7.73;60.46;95047.94;4990571;28;20026;-70
2021/11/22 03:19:47;;;;;;;33.88;20.35;;;;;;;7.38;61.83;95057.94;4993006;28;20026;-69
2021/11/22 03:22:12;;;;;;;32.40;20.70;;;;;;;7.35;61.35;95063.00;4992074;28;20030;-70
2021/11/22 03:24:37;;;;;;;42.72;23.25;;;;;;;8.14;59.29;95061.34;4997340;28;20105;-70
2021/11/22 03:27:03;;;;;;;39.95;23.17;;;;;;;7.93;59.71;95046.81;4996573;28;20061;-70
2021/11/22 03:29:29;;;;;;;37.88;22.45;;;;;;;7.55;60.27;95066.16;4992662;28;20038;-70
2021/11/22 03:31:55;;;;;;;36.63;20.88;;;;;;;7.95;59.82;95065.88;4993562;28;20030;-70
2021/11/22 03:34:21;;;;;;;29.98;18.50;;;;;;;6.47;63.68;95028.84;4993110;28;20022;-70
2021/11/22 03:36:46;;;;;;;35.50;19.65;;;;;;;7.15;62.53;95056.13;4993318;28;20105;-70
2021/11/22 03:39:20;;;;;;;30.27;18.52;;;;;;;7.30;61.77;95071.78;4996845;28;20494;-70
2021/11/22 03:41:46;;;;;;;36.95;21.67;;;;;;;7.92;60.46;95061.91;4996327;28;20129;-70
2021/11/22 03:44:14;;;;;;;31.02;19.15;;;;;;;7.15;62.86;95070.13;4992471;28;20098;-70
2021/11/22 03:46:45;;;;;;;34.85;20.75;;;;;;;7.32;62.14;95088.19;4992965;28;20081;-70
2021/11/22 03:49:11;;;;;;;41.13;22.77;;;;;;;7.09;62.58;95073.91;4992614;28;20041;-70
2021/11/22 03:51:36;;;;;;;35.65;21.02;;;;;;;7.15;63.04;95074.63;4992398;28;20743;-70
2021/11/22 03:54:02;;;;;;;35.92;21.25;;;;;;;7.32;62.50;95079.44;4992115;28;20034;-70
2021/11/22 03:56:28;;;;;;;41.42;23.63;;;;;;;8.25;60.85;95070.69;4997146;28;20045;-70
2021/11/22 03:58:54;;;;;;;37.08;21.23;;;;;;;7.78;60.08;95088.34;4992398;28;20102;-70
2021/11/22 04:01:19;;;;;;;40.63;23.23;;;;;;;8.62;59.22;95084.94;4992391;28;20109;-71
2021/11/22 04:03:45;;;;;;;37.80;23.02;;;;;;;8.71;58.56;95083.19;4992527;28;20077;-70
2021/11/22 04:06:11;;;;;;;36.42;21.70;;;;;;;8.49;58.34;95088.31;4991191;28;20026;-70
2021/11/22 04:08:36;;;;;;;41.90;23.20;;;;;;;9.08;57.16;95076.13;4992043;28;20542;-70
2021/11/22 04:11:02;;;;;;;39.03;21.75;;;;;;;9.12;56.74;95071.78;4996408;28;20014;-70
2021/11/22 04:13:28;;;;;;;32.13;19.75;;;;;;;8.96;55.96;95073.97;4992027;28;20034;-70
2021/11/22 04:15:53;;;;;;;40.28;23.00;;;;;;;9.50;55.63;95108.72;4992517;28;20068;-70
2021/11/22 04:18:19;;;;;;;34.72;21.42;;;;;;;9.52;55.66;95107.34;4992382;28;20484;-70
2021/11/22 04:20:44;;;;;;;35.03;21.67;;;;;;;9.68;55.01;95107.81;4990646;28;20030;-71
2021/11/22 04:23:10;;;;;;;37.63;22.50;;;;;;;9.34;54.90;95082.47;4992138;28;20076;-70
2021/11/22 04:25:36;;;;;;;40.25;22.63;;;;;;;9.22;55.59;95103.44;4997276;28;20034;-70
2021/11/22 04:28:03;;;;;;;38.75;22.77;;;;;;;9.19;55.73;95090.75;4992268;28;20486;-70
2021/11/22 04:30:30;;;;;;;35.53;21.88;;;;;;;9.48;54.99;95095.75;4991982;28;20480;-70
2021/11/22 04:32:56;;;;;;;39.25;21.58;;;;;;;8.76;55.86;95109.59;4991920;28;20137;-70
2021/11/22 04:35:22;;;;;;;36.80;22.85;;;;;;;8.85;56.77;95109.69;4992195;28;20022;-71
2021/11/22 04:37:47;;;;;;;41.33;23.83;;;;;;;8.84;56.56;95110.78;4991956;28;20113;-70
2021/11/22 04:40:16;;;;;;;39.78;22.83;;;;;;;9.36;55.41;95132.63;4995794;28;20049;-70
2021/11/22 04:42:45;;;;;;;46.10;22.02;;;;;;;8.76;56.68;95132.69;4991720;28;20025;-70
2021/11/22 04:45:11;;;;;;;37.10;21.48;;;;;;;7.87;59.59;95132.72;4990502;28;20029;-70
2021/11/22 04:47:36;;;;;;;34.15;22.08;;;;;;;7.74;60.11;95145.59;4991747;28;20034;-70
2021/11/22 04:50:03;;;;;;;39.28;23.95;;;;;;;8.63;58.38;95138.72;4991230;28;20026;-70
2021/11/22 04:52:29;;;;;;;36.20;22.48;;;;;;;8.89;57.73;95123.94;4989809;28;20145;-70
2021/11/22 04:54:54;;;;;;;42.90;23.30;;;;;;;8.87;56.79;95130.63;4994202;28;20467;-70
2021/11/22 04:57:20;;;;;;;42.33;23.60;;;;;;;8.60;57.93;95148.06;4992746;28;20030;-71
2021/11/22 04:59:45;;;;;;;40.65;23.45;;;;;;;9.22;56.32;95124.66;4989780;28;20038;-70
2021/11/22 05:02:11;;;;;;;37.05;21.45;;;;;;;9.12;55.87;95132.81;4990261;28;20054;-70
2021/11/22 05:04:38;;;;;;;41.38;23.55;;;;;;;9.14;56.26;95124.56;4991203;28;20023;-71
2021/11/22 05:07:04;;;;;;;37.83;22.85;;;;;;;9.25;55.53;95144.50;4991601;28;20030;-71
2021/11/22 05:09:29;;;;;;;34.92;21.95;;;;;;;8.85;56.56;95142.34;4990394;28;20072;-70
2021/11/22 05:11:55;;;;;;;36.28;22.05;;;;;;;7.95;59.66;95150.63;4996449;28;20057;-70
2021/11/22 05:14:20;;;;;;;36.45;22.33;;;;;;;8.10;59.61;95153.06;4990255;28;20046;-72
2021/11/22 05:16:46;;;;;;;38.97;21.38;;;;;;;7.56;60.57;95149.78;4990054;28;20057;-70
2021/11/22 05:19:12;;;;;;;39.55;22.60;;;;;;;8.46;59.10;95153.31;4990937;28;20400;-70
2021/11/22 05:21:39;;;;;;;41.60;22.63;;;;;;;8.60;58.51;95156.03;4991325;28;20031;-70
2021/11/22 05:24:05;;;;;;;37.50;21.15;;;;;;;8.81;57.45;95138.69;4990489;28;20073;-70
2021/11/22 05:26:31;;;;;;;34.95;21.15;;;;;;;8.47;58.90;95146.94;4992466;28;20387;-70
2021/11/22 05:28:58;;;;;;;38.42;21.98;;;;;;;8.64;58.33;95150.91;4990420;28;20147;-70
2021/11/22 05:31:24;;;;;;;34.92;20.90;;;;;;;8.55;57.81;95158.75;4989606;28;20068;-70
2021/11/22 05:33:50;;;;;;;37.28;21.65;;;;;;;8.78;57.52;95149.09;4989400;28;20022;-70
2021/11/22 05:36:16;;;;;;;37.70;21.00;;;;;;;8.44;58.67;95163.41;4991103;28;20081;-70
2021/11/22 05:38:41;;;;;;;41.05;21.20;;;;;;;8.45;58.57;95151.75;4990251;28;20027;-70
2021/11/22 05:41:07;;;;;;;36.30;20.15;;;;;;;9.09;57.55;95136.84;4994471;28;20037;-70
2021/11/22 05:43:35;;;;;;;40.25;21.75;;;;;;;9.23;56.39;95173.22;4995131;28;20026;-70
2021/11/22 05:46:00;;;;;;;37.00;21.67;;;;;;;8.52;58.71;95175.22;4989420;28;20026;-70
2021/11/22 05:48:26;;;;;;;38.95;21.17;;;;;;;8.62;58.37;95153.06;4990603;28;20510;-70
2021/11/22 05:50:53;;;;;;;30.70;16.20;;;;;;;7.58;61.37;95180.50;4987450;28;20050;-70
2021/11/22 05:53:19;;;;;;;34.97;20.65;;;;;;;8.50;59.48;95169.44;4990451;28;20033;-70
2021/11/22 05:55:46;;;;;;;39.00;21.30;;;;;;;9.05;58.22;95156.28;4989914;28;20120;-71
2021/11/22 05:58:13;;;;;;;37.15;20.52;;;;;;;8.49;58.77;95175.81;4991767;28;20030;-71
2021/11/22 06:00:40;;;;;;;39.95;20.70;;;;;;;8.52;58.97;95189.28;4991301;28;20423;-71
2021/11/22 06:03:06;;;;;;;30.35;17.95;;;;;;;7.88;60.20;95181.94;4990432;28;20026;-70
2021/11/22 06:05:31;;;;;;;38.58;19.88;;;;;;;8.57;59.31;95167.97;4991709;28;20027;-71
2021/11/22 06:07:57;;;;;;;42.08;21.23;;;;;;;8.63;58.96;95187.25;4991639;28;20037;-70
2021/11/22 06:10:22;;;;;;;36.72;19.92;;;;;;;8.82;58.45;95195.16;4989917;28;20022;-70
2021/11/22 06:12:47;;;;;;;43.22;20.65;;;;;;;8.85;57.78;95176.81;4986126;28;20057;-70
2021/11/22 06:15:13;;;;;;;40.85;21.25;;;;;;;8.79;58.28;95196.53;4990318;28;20112;-70
2021/11/22 06:17:39;;;;;;;39.80;21.13;;;;;;;8.53;58.41;95206.75;4991033;28;20081;-74
2021/11/22 06:20:08;;;;;;;40.25;20.58;;;;;;;8.52;59.26;95197.22;4991188;28;20026;-70
2021/11/22 06:22:34;;;;;;;47.00;20.85;;;;;;;8.42;59.37;95186.78;4989642;28;20023;-71
2021/11/22 06:25:00;;;;;;;52.28;20.35;;;;;;;8.18;60.43;95208.03;4985755;28;20081;-71
2021/11/22 06:27:26;;;;;;;38.28;19.08;;;;;;;8.57;59.08;95213.06;4988666;28;20058;-71
2021/11/22 06:29:52;;;;;;;41.47;19.58;;;;;;;8.32;62.18;95208.88;4989705;28;20121;-68
2021/11/22 06:32:18;;;;;;;37.63;20.27;;;;;;;8.83;59.91;95225.91;4990000;28;20030;-68
2021/11/22 06:34:44;;;;;;;32.08;18.40;;;;;;;8.95;59.51;95220.94;4990495;28;20488;-70
2021/11/22 06:37:09;;;;;;;32.80;19.13;;;;;;;9.09;59.02;95236.88;4990527;28;20054;-71
2021/11/22 06:39:36;;;;;;;44.08;20.73;;;;;;;9.17;59.14;95238.09;4989781;28;20027;-70
2021/11/22 06:42:02;;;;;;;41.72;19.80;;;;;;;8.78;58.74;95242.69;4989141;28;20046;-71
2021/11/22 06:44:27;;;;;;;44.42;20.77;;;;;;;9.12;58.39;95236.31;4988790;28;20437;-76
2021/11/22 06:46:53;;;;;;;38.17;18.80;;;;;;;8.07;60.13;95254.28;4989533;28;20038;-80
2021/11/22 06:49:19;;;;;;;35.53;19.92;;;;;;;7.98;61.16;95240.09;4989361;28;20026;-84
2021/11/22 06:51:46;;;;;;;39.30;19.25;;;;;;;8.45;61.07;95241.88;4992122;28;20026;-69
2021/11/22 06:54:12;;;;;;;33.30;19.08;;;;;;;9.12;58.87;95254.91;4994931;28;20030;-76
2021/11/22 06:56:37;;;;;;;31.50;18.25;;;;;;;8.72;59.74;95245.72;4998212;28;20492;-81
2021/11/22 06:59:03;;;;;;;46.75;21.83;;;;;;;9.44;57.93;95240.78;4997385;28;20033;-76
2021/11/22 07:01:29;;;;;;;43.97;22.08;;;;;;;9.83;57.18;95244.84;4993349;28;20399;-78
2021/11/22 07:03:55;;;;;;;40.90;21.85;;;;;;;9.67;56.82;95252.28;4995749;28;20106;-75
2021/11/22 07:06:20;;;;;;;39.15;20.15;;;;;;;9.64;56.01;95250.25;4995149;28;20633;-77
2021/11/22 07:08:46;;;;;;;39.70;21.60;;;;;;;9.00;57.63;95247.38;4994207;28;20046;-71
2021/11/22 07:11:11;;;;;;;38.05;20.52;;;;;;;10.01;56.28;95253.78;4997107;28;20019;-78
2021/11/22 07:13:37;;;;;;;36.88;21.25;;;;;;;10.17;55.29;95255.03;4994029;28;20514;-68
2021/11/22 07:16:02;;;;;;;39.08;20.75;;;;;;;10.06;54.79;95251.78;4993983;28;20019;-76
2021/11/22 07:18:28;;;;;;;34.97;19.15;;;;;;;8.28;59.58;95266.19;4994012;28;20030;-76
2021/11/22 07:20:53;;;;;;;34.80;19.65;;;;;;;9.11;58.15;95274.56;4993437;28;20480;-79
2021/11/22 07:23:23;;;;;;;32.85;19.35;;;;;;;9.37;57.59;95275.69;4992371;28;20431;-67
2021/11/22 07:25:50;;;;;;;35.28;21.33;;;;;;;9.81;56.77;95282.31;4992986;28;20046;-71
2021/11/22 07:28:16;;;;;;;38.63;20.58;;;;;;;9.83;55.81;95282.03;4997589;28;20026;-76
2021/11/22 07:30:42;;;;;;;34.45;20.77;;;;;;;9.02;57.41;95263.03;4993762;28;20034;-78
2021/11/22 07:33:08;;;;;;;35.45;20.88;;;;;;;9.81;56.25;95292.94;4994053;28;20508;-71
2021/11/22 07:35:34;;;;;;;34.97;19.45;;;;;;;8.30;59.50;95295.06;4993281;28;20023;-68
2021/11/22 07:37:59;;;;;;;38.15;20.52;;;;;;;8.45;59.44;95308.16;4992320;28;20674;-73
2021/11/22 07:40:25;;;;;;;38.75;21.25;;;;;;;8.82;58.55;95295.97;4993749;28;20401;-77
2021/11/22 07:42:52;;;;;;;37.13;21.15;;;;;;;8.88;58.50;95315.22;4997114;28;20061;-72
2021/11/22 07:45:20;;;;;;;36.30;20.00;;;;;;;8.21;60.20;95310.03;4993544;28;20026;-70
2021/11/22 07:47:45;;;;;;;42.17;21.65;;;;;;;9.05;58.34;95303.00;4992027;28;20085;-70
2021/11/22 07:50:10;;;;;;;33.97;21.17;;;;;;;9.38;56.75;95303.81;4991582;28;20030;-71
2021/11/22 07:52:36;;;;;;;35.35;20.33;;;;;;;8.52;58.48;95321.03;4991474;28;20047;-69
2021/11/22 07:55:02;;;;;;;43.58;21.30;;;;;;;9.14;57.64;95307.66;4992811;28;20023;-69
2021/11/22 07:57:28;;;;;;;36.83;20.83;;;;;;;9.22;57.20;95307.81;4991406;28;20121;-69
2021/11/22 07:59:54;;;;;;;36.97;21.15;;;;;;;9.80;56.74;95320.59;4991843;28;20061;-74
2021/11/22 08:02:19;;;;;;;35.42;20.95;;;;;;;9.98;55.66;95318.13;4993233;28;20058;-80
2021/11/22 08:04:45;;;;;;;38.15;19.58;;;;;;;10.27;55.03;95317.84;4991750;28;20077;-68
2021/11/22 08:07:16;;;;;;;37.65;21.13;;;;;;;10.50;54.77;95313.41;4992861;28;20046;-66
2021/11/22 08:09:56;;;;;;;28.25;17.95;;;;;;;10.44;53.70;95322.56;4991905;28;20062;-73
2021/11/22 08:12:26;;;;;;;32.28;18.42;;;;;;;10.58;53.61;95318.78;4998373;28;20022;-69
2021/11/22 08:14:58;;;;;;;28.55;18.63;;;;;;;10.26;54.06;95327.72;4992715;28;20488;-69
2021/11/22 08:17:25;;;;;;;23.05;16.58;;;;;;;10.60;53.58;95326.50;4991419;28;20023;-68
2021/11/22 08:19:53;;;;;;;19.38;14.40;;;;;;;9.86;53.23;95329.25;4991857;28;20403;-69
2021/11/22 08:22:23;;;;;;;28.13;17.83;;;;;;;9.70;54.20;95338.59;4991092;28;20672;-69
2021/11/22 08:24:53;;;;;;;22.85;16.00;;;;;;;9.38;55.49;95342.84;4990800;28;20022;-69
2021/11/22 08:27:24;;;;;;;25.63;17.45;;;;;;;10.04;54.62;95341.69;5004338;28;20053;-70
2021/11/22 08:29:51;;;;;;;28.80;18.33;;;;;;;10.09;54.06;95338.91;4991879;28;20420;-70
2021/11/22 08:32:17;;;;;;;20.73;15.65;;;;;;;9.75;54.31;95351.78;4992040;28;20034;-68
2021/11/22 08:34:43;;;;;;;25.48;17.25;;;;;;;9.52;54.48;95340.19;4990919;28;20058;-69
2021/11/22 08:37:10;;;;;;;27.65;17.20;;;;;;;10.03;54.31;95355.22;4992331;28;20062;-69
2021/11/22 08:39:36;;;;;;;24.95;16.45;;;;;;;9.98;53.87;95360.66;4989933;28;20072;-69
2021/11/22 08:42:03;;;;;;;26.15;16.65;;;;;;;10.42;53.35;95357.44;4995202;28;20018;-68
2021/11/22 08:44:29;;;;;;;27.02;17.60;;;;;;;10.14;53.61;95360.09;4990667;28;20364;-68
2021/11/22 08:46:55;;;;;;;26.92;17.75;;;;;;;10.18;53.82;95376.22;4990714;28;20049;-72
2021/11/22 08:49:21;;;;;;;27.85;16.85;;;;;;;10.36;53.23;95375.38;4991547;28;20480;-69
2021/11/22 08:51:46;;;;;;;20.15;15.63;;;;;;;10.23;52.46;95380.66;4991458;28;20121;-69
2021/11/22 08:54:12;;;;;;;29.67;18.23;;;;;;;10.33;53.05;95405.19;4992003;28;20381;-68
2021/11/22 08:56:37;;;;;;;25.80;17.33;;;;;;;10.33;53.11;95397.22;4993443;28;20121;-71
2021/11/22 08:59:03;;;;;;;26.70;18.17;;;;;;;10.75;52.78;95397.19;4991210;28;20153;-71
2021/11/22 09:01:30;;;;;;;25.98;17.45;;;;;;;10.48;52.82;95409.44;4991565;28;20030;-69
2021/11/22 09:03:56;;;;;;;20.65;15.20;;;;;;;10.53;52.45;95400.56;4992205;28;20027;-69
2021/11/22 09:06:21;;;;;;;26.75;16.50;;;;;;;10.82;52.20;95398.38;4992084;28;20109;-71
2021/11/22 09:08:47;;;;;;;20.08;14.63;;;;;;;10.91;51.83;95403.78;4991686;28;20110;-68
2021/11/22 09:11:14;;;;;;;19.80;15.10;;;;;;;11.06;51.57;95415.97;4991160;28;20026;-69
2021/11/22 09:13:39;;;;;;;21.70;14.32;;;;;;;11.15;50.98;95412.28;4990998;28;20045;-68
2021/11/22 09:16:05;;;;;;;25.27;15.07;;;;;;;11.12;51.37;95417.44;4991107;28;20508;-69
2021/11/22 09:18:31;;;;;;;23.50;15.77;;;;;;;11.34;51.83;95419.34;4991380;28;20030;-70
2021/11/22 09:20:56;;;;;;;21.90;15.80;;;;;;;11.18;50.85;95410.91;4990971;28;20073;-69
2021/11/22 09:23:22;;;;;;;22.45;16.38;;;;;;;11.25;50.59;95413.16;4989537;28;20435;-69
2021/11/22 09:25:47;;;;;;;21.73;15.60;;;;;;;11.06;52.03;95410.66;4993194;28;20758;-69
2021/11/22 09:28:13;;;;;;;24.15;16.65;;;;;;;11.09;50.81;95426.78;4995866;28;20108;-69
2021/11/22 09:30:38;;;;;;;24.33;16.83;;;;;;;10.72;51.85;95427.84;4990927;28;20022;-70
2021/11/22 09:33:04;;;;;;;22.52;15.40;;;;;;;10.94;51.78;95424.47;4991369;28;20022;-69
2021/11/22 09:35:30;;;;;;;20.95;15.20;;;;;;;10.99;52.04;95434.22;4990077;28;20026;-70
2021/11/22 09:37:56;;;;;;;20.10;14.13;;;;;;;11.44;51.59;95435.09;4991297;28;20511;-69
2021/11/22 09:40:21;;;;;;;21.13;14.35;;;;;;;11.69;51.23;95431.03;4990840;28;20022;-69
2021/11/22 09:42:47;;;;;;;18.67;14.45;;;;;;;10.67;51.68;95436.72;4992700;28;20488;-69
2021/11/22 09:45:13;;;;;;;19.08;14.05;;;;;;;11.12;51.67;95434.19;4989362;28;20022;-70
2021/11/22 09:47:39;;;;;;;15.95;13.13;;;;;;;11.43;50.67;95439.63;4990525;28;20023;-69
2021/11/22 09:50:07;;;;;;;23.52;14.45;;;;;;;11.56;50.74;95453.97;4989259;28;20654;-68
2021/11/22 09:52:33;;;;;;;20.98;14.55;;;;;;;11.72;50.15;95443.78;4989065;28;20029;-67
2021/11/22 09:54:59;;;;;;;19.42;14.35;;;;;;;11.61;49.54;95435.19;4989227;28;20030;-69
2021/11/22 09:57:25;;;;;;;18.33;13.98;;;;;;;11.63;50.02;95448.25;4993625;28;20041;-66
2021/11/22 09:59:50;;;;;;;17.52;14.15;;;;;;;11.40;48.91;95445.53;4993062;28;20113;-70
2021/11/22 10:02:15;;;;;;;16.20;12.80;;;;;;;11.39;49.91;95441.31;4990367;28;20065;-69
2021/11/22 10:04:41;;;;;;;16.48;13.15;;;;;;;10.99;50.44;95445.66;4990897;28;20057;-67
2021/11/22 10:07:09;;;;;;;15.32;12.50;;;;;;;10.83;50.89;95450.50;4991096;28;20064;-67
2021/11/22 10:09:44;;;;;;;17.30;13.45;;;;;;;10.75;51.57;95429.94;4989691;28;20033;-67
2021/11/22 10:12:17;;;;;;;16.30;13.63;;;;;;;11.06;50.35;95443.38;4993699;28;20018;-70
2021/11/22 10:14:48;;;;;;;19.65;13.43;;;;;;;11.27;50.52;95435.75;4989008;28;20028;-69
2021/11/22 10:17:34;;;;;;;14.93;13.03;;;;;;;11.30;49.56;95435.13;4990543;28;20373;-71
2021/11/22 10:20:05;;;;;;;19.00;13.93;;;;;;;11.48;49.45;95436.06;4990435;28;20053;-69
2021/11/22 10:22:43;;;;;;;16.05;12.73;;;;;;;11.35;49.28;95437.66;4989869;28;20093;-69
2021/11/22 10:25:18;;;;;;;13.93;12.52;;;;;;;11.68;49.03;95424.13;4989384;28;20113;-68
2021/11/22 10:27:43;;;;;;;18.55;13.15;;;;;;;11.53;48.70;95419.19;4995305;28;20029;-68
2021/11/22 10:30:20;;;;;;;15.88;13.60;;;;;;;11.15;49.55;95427.47;4990032;28;20026;-68
2021/11/22 10:32:45;;;;;;;20.23;14.23;;;;;;;11.28;49.51;95441.84;4989643;28;20030;-73
2021/11/22 10:35:16;;;;;;;16.90;14.23;;;;;;;11.42;49.78;95438.06;4988802;28;20088;-69
2021/11/22 10:37:53;;;;;;;16.27;13.93;;;;;;;11.68;49.46;95438.25;4989641;28;20638;-67
2021/11/22 10:40:19;;;;;;;16.88;13.93;;;;;;;12.07;48.96;95433.31;4988685;28;20553;-68
2021/11/22 10:42:44;;;;;;;17.55;13.88;;;;;;;11.15;50.94;95430.13;4992708;28;20022;-68
2021/11/22 10:45:32;;;;;;;17.45;13.70;;;;;;;11.79;49.03;95446.78;4988856;28;20030;-67
2021/11/22 10:48:24;;;;;;;15.70;13.27;;;;;;;11.57;48.97;95441.47;4988861;28;20083;-68
2021/11/22 10:51:14;;;;;;;15.13;12.73;;;;;;;11.59;49.31;95440.06;4989618;28;20014;-68
2021/11/22 10:53:46;;;;;;;18.10;14.48;;;;;;;11.76;48.48;95436.72;4982789;28;20031;-69
2021/11/22 10:56:18;;;;;;;21.65;14.80;;;;;;;12.03;48.50;95451.03;4980733;28;20030;-70
2021/11/22 10:59:03;;;;;;;19.33;13.80;;;;;;;11.33;49.88;95445.19;4985484;28;20027;-68
2021/11/22 11:01:33;;;;;;;19.73;14.65;;;;;;;11.73;48.82;95448.00;4996806;28;20575;-70
2021/11/22 11:04:06;;;;;;;17.67;13.93;;;;;;;11.40;49.33;95440.22;4975988;28;20372;-70
2021/11/22 11:06:46;;;;;;;18.52;14.48;;;;;;;11.60;49.80;95452.28;4977996;28;20019;-69
2021/11/22 11:09:19;;;;;;;24.08;16.90;;;;;;;11.70;50.49;95443.25;4976836;28;20567;-68
2021/11/22 11:11:45;;;;;;;21.77;15.40;;;;;;;11.11;51.48;95442.50;4985192;28;20030;-68
2021/11/22 11:14:14;;;;;;;30.90;17.98;;;;;;;11.17;52.73;95441.28;5000379;28;20041;-69
2021/11/22 11:16:41;;;;;;;30.58;17.50;;;;;;;11.01;53.06;95453.34;4988991;28;20058;-72
2021/11/22 11:19:11;;;;;;;23.88;15.57;;;;;;;10.53;53.65;95457.22;4989426;28;20026;-71
2021/11/22 11:21:40;;;;;;;23.83;15.90;;;;;;;9.63;55.04;95477.09;4989813;28;20061;-73